BRU955 UMMS-UUDD
Flight info
| Callsign | BRU955 |
|---|---|
| Flight time | N/A |
| Altitude | 35000 |
| Route | SORF2F SORFO L979 PASUD T52 BILRU BILR3L |
| Aircraft | B738/M-VGDW/C |
Departure
| Time | 2026-05-05 16:53 |
|---|---|
| Airport | Minsk National Airport (UMMS) |
Arrival
| Time | N/A |
|---|---|
| Airport | Domodedovo International Airport (UUDD) |
| Time | Latitude | Longitude | Altitude | Speed | Heading |
|---|---|---|---|---|---|
| 2026-05-05 15:59 | 53.88860 | 28.03419 | 653 ft | 0 kts | 343° |
| 2026-05-05 16:43 | 53.88858 | 28.03420 | 653 ft | 1 kts | 344° |
| 2026-05-05 16:43 | 53.88844 | 28.03427 | 653 ft | 2 kts | 343° |
| 2026-05-05 16:43 | 53.88831 | 28.03433 | 653 ft | 2 kts | 344° |
| 2026-05-05 16:44 | 53.88816 | 28.03438 | 654 ft | 2 kts | 13° |
| 2026-05-05 16:44 | 53.88802 | 28.03427 | 653 ft | 2 kts | 43° |
| 2026-05-05 16:44 | 53.88794 | 28.03407 | 654 ft | 1 kts | 73° |
| 2026-05-05 16:44 | 53.88793 | 28.03397 | 653 ft | 1 kts | 80° |
| 2026-05-05 16:45 | 53.88793 | 28.03393 | 653 ft | 0 kts | 79° |
| 2026-05-05 16:46 | 53.88796 | 28.03423 | 653 ft | 9 kts | 79° |
| 2026-05-05 16:47 | 53.88786 | 28.03599 | 653 ft | 19 kts | 136° |
| 2026-05-05 16:47 | 53.88740 | 28.03714 | 654 ft | 9 kts | 91° |
| 2026-05-05 16:47 | 53.88766 | 28.03799 | 656 ft | 8 kts | 51° |
| 2026-05-05 16:47 | 53.88824 | 28.03922 | 658 ft | 14 kts | 61° |
| 2026-05-05 16:48 | 53.88815 | 28.04077 | 661 ft | 12 kts | 94° |
| 2026-05-05 16:48 | 53.88852 | 28.04195 | 663 ft | 11 kts | 49° |
| 2026-05-05 16:48 | 53.88884 | 28.04258 | 664 ft | 17 kts | 49° |
| 2026-05-05 16:49 | 53.88967 | 28.04415 | 669 ft | 23 kts | 48° |
| 2026-05-05 16:49 | 53.89092 | 28.04660 | 677 ft | 30 kts | 49° |
| 2026-05-05 16:49 | 53.89183 | 28.04861 | 686 ft | 15 kts | 81° |
| 2026-05-05 16:49 | 53.89129 | 28.04998 | 687 ft | 14 kts | 137° |
| 2026-05-05 16:50 | 53.89050 | 28.05119 | 686 ft | 17 kts | 140° |
| 2026-05-05 16:50 | 53.88931 | 28.05284 | 686 ft | 26 kts | 138° |
| 2026-05-05 16:50 | 53.88794 | 28.05496 | 687 ft | 26 kts | 137° |
| 2026-05-05 16:50 | 53.88685 | 28.05656 | 688 ft | 9 kts | 139° |
| 2026-05-05 16:51 | 53.88642 | 28.05738 | 688 ft | 11 kts | 111° |
| 2026-05-05 16:51 | 53.88699 | 28.05839 | 689 ft | 19 kts | 345° |
| 2026-05-05 16:51 | 53.88828 | 28.05784 | 691 ft | 18 kts | 341° |
| 2026-05-05 16:51 | 53.88935 | 28.05693 | 693 ft | 15 kts | 320° |
| 2026-05-05 16:52 | 53.88950 | 28.05672 | 693 ft | 14 kts | 319° |
| 2026-05-05 16:52 | 53.89280 | 28.05177 | 691 ft | 107 kts | 316° |
| 2026-05-05 16:52 | 53.89944 | 28.03943 | 695 ft | 173 kts | 310° |
| 2026-05-05 16:52 | 53.90826 | 28.02392 | 1171 ft | 198 kts | 315° |
| 2026-05-05 16:53 | 53.91996 | 28.00849 | 1682 ft | 242 kts | 321° |
| 2026-05-05 16:53 | 53.93434 | 27.99014 | 2153 ft | 270 kts | 321° |
| 2026-05-05 16:53 | 53.94866 | 27.97002 | 2637 ft | 265 kts | 317° |
| 2026-05-05 16:53 | 53.96395 | 27.95309 | 3113 ft | 272 kts | 336° |
| 2026-05-05 16:54 | 53.98282 | 27.95045 | 3603 ft | 283 kts | 7° |
| 2026-05-05 16:54 | 54.00127 | 27.96079 | 4094 ft | 290 kts | 20° |
| 2026-05-05 16:54 | 54.01951 | 27.97474 | 4564 ft | 294 kts | 21° |
| 2026-05-05 16:54 | 54.03756 | 27.98982 | 5043 ft | 298 kts | 28° |
| 2026-05-05 16:55 | 54.05415 | 28.01113 | 5520 ft | 304 kts | 43° |
| 2026-05-05 16:55 | 54.06562 | 28.04025 | 5971 ft | 311 kts | 71° |
| 2026-05-05 16:55 | 54.06887 | 28.07521 | 6460 ft | 310 kts | 91° |
| 2026-05-05 16:55 | 54.06772 | 28.11069 | 6931 ft | 312 kts | 97° |
| 2026-05-05 16:56 | 54.06587 | 28.14689 | 7402 ft | 313 kts | 96° |
| 2026-05-05 16:56 | 54.06450 | 28.18340 | 7881 ft | 316 kts | 95° |
| 2026-05-05 16:56 | 54.06400 | 28.22074 | 8394 ft | 318 kts | 90° |
| 2026-05-05 16:56 | 54.06511 | 28.25840 | 8857 ft | 323 kts | 86° |
| 2026-05-05 16:57 | 54.06726 | 28.29580 | 9368 ft | 322 kts | 84° |
| 2026-05-05 16:57 | 54.06960 | 28.33126 | 9802 ft | 326 kts | 84° |
| 2026-05-05 16:57 | 54.07235 | 28.36903 | 10345 ft | 326 kts | 81° |
| 2026-05-05 16:57 | 54.07816 | 28.40564 | 10890 ft | 330 kts | 67° |
| 2026-05-05 16:58 | 54.08865 | 28.44012 | 11298 ft | 332 kts | 57° |
| 2026-05-05 16:58 | 54.10100 | 28.47273 | 11823 ft | 334 kts | 54° |
| 2026-05-05 16:58 | 54.11390 | 28.50553 | 12376 ft | 336 kts | 55° |
| 2026-05-05 16:58 | 54.12664 | 28.53862 | 12883 ft | 338 kts | 56° |
| 2026-05-05 16:59 | 54.13939 | 28.57269 | 13384 ft | 341 kts | 56° |
| 2026-05-05 16:59 | 54.15180 | 28.60661 | 13875 ft | 343 kts | 57° |
| 2026-05-05 16:59 | 54.16420 | 28.64106 | 14366 ft | 346 kts | 57° |
| 2026-05-05 16:59 | 54.17625 | 28.67478 | 14843 ft | 349 kts | 58° |
| 2026-05-05 17:00 | 54.18858 | 28.70935 | 15327 ft | 352 kts | 58° |
| 2026-05-05 17:00 | 54.20113 | 28.74452 | 15815 ft | 354 kts | 58° |
| 2026-05-05 17:00 | 54.21362 | 28.77949 | 16308 ft | 356 kts | 58° |
| 2026-05-05 17:00 | 54.22619 | 28.81480 | 16800 ft | 359 kts | 58° |
| 2026-05-05 17:01 | 54.23846 | 28.84936 | 17276 ft | 360 kts | 58° |
| 2026-05-05 17:01 | 54.24701 | 28.87343 | 17600 ft | 362 kts | 58° |
| 2026-05-05 17:01 | 54.26012 | 28.91044 | 18101 ft | 367 kts | 58° |
| 2026-05-05 17:01 | 54.27331 | 28.94769 | 18611 ft | 370 kts | 58° |
| 2026-05-05 17:02 | 54.28624 | 28.98556 | 19115 ft | 371 kts | 61° |
| 2026-05-05 17:02 | 54.29691 | 29.02526 | 19622 ft | 375 kts | 70° |
| 2026-05-05 17:02 | 54.30430 | 29.06807 | 20136 ft | 378 kts | 77° |
| 2026-05-05 17:02 | 54.30962 | 29.11180 | 20658 ft | 378 kts | 80° |
| 2026-05-05 17:03 | 54.31416 | 29.15629 | 21180 ft | 384 kts | 81° |
| 2026-05-05 17:03 | 54.31856 | 29.20168 | 21690 ft | 386 kts | 81° |
| 2026-05-05 17:03 | 54.32294 | 29.24664 | 22206 ft | 389 kts | 81° |
| 2026-05-05 17:03 | 54.32751 | 29.29245 | 22732 ft | 393 kts | 81° |
| 2026-05-05 17:04 | 54.33221 | 29.33871 | 23251 ft | 397 kts | 80° |
| 2026-05-05 17:04 | 54.33698 | 29.38501 | 23771 ft | 397 kts | 80° |
| 2026-05-05 17:04 | 54.34181 | 29.43141 | 24305 ft | 403 kts | 79° |
| 2026-05-05 17:04 | 54.34681 | 29.47904 | 24843 ft | 409 kts | 80° |
| 2026-05-05 17:05 | 54.35180 | 29.52669 | 25369 ft | 407 kts | 80° |
| 2026-05-05 17:05 | 54.35669 | 29.57354 | 25906 ft | 407 kts | 80° |
| 2026-05-05 17:05 | 54.36161 | 29.62102 | 26432 ft | 406 kts | 79° |
| 2026-05-05 17:05 | 54.36652 | 29.66866 | 26968 ft | 401 kts | 81° |
| 2026-05-05 17:06 | 54.37129 | 29.71481 | 27505 ft | 400 kts | 81° |
| 2026-05-05 17:06 | 54.37616 | 29.76205 | 28066 ft | 402 kts | 80° |
| 2026-05-05 17:06 | 54.38099 | 29.80898 | 28573 ft | 399 kts | 80° |
| 2026-05-05 17:06 | 54.38576 | 29.85530 | 29127 ft | 396 kts | 80° |
| 2026-05-05 17:07 | 54.39085 | 29.90124 | 29669 ft | 397 kts | 78° |
| 2026-05-05 17:07 | 54.39760 | 29.94674 | 30220 ft | 397 kts | 71° |
| 2026-05-05 17:07 | 54.40715 | 29.99137 | 30785 ft | 399 kts | 67° |
| 2026-05-05 17:07 | 54.41764 | 30.03319 | 31300 ft | 402 kts | 65° |
| 2026-05-05 17:08 | 54.42911 | 30.07695 | 31859 ft | 403 kts | 65° |
| 2026-05-05 17:08 | 54.44050 | 30.12044 | 32417 ft | 405 kts | 65° |
| 2026-05-05 17:08 | 54.45203 | 30.16491 | 32976 ft | 406 kts | 66° |
| 2026-05-05 17:08 | 54.46333 | 30.20912 | 33531 ft | 407 kts | 67° |
| 2026-05-05 17:09 | 54.47458 | 30.25370 | 34083 ft | 407 kts | 67° |
| 2026-05-05 17:09 | 54.48577 | 30.29804 | 34638 ft | 408 kts | 68° |
| 2026-05-05 17:09 | 54.49701 | 30.34287 | 34826 ft | 415 kts | 68° |
| 2026-05-05 17:09 | 54.50848 | 30.38886 | 34856 ft | 419 kts | 67° |
| 2026-05-05 17:10 | 54.53154 | 30.48197 | 34863 ft | 428 kts | 68° |
| 2026-05-05 17:10 | 54.55483 | 30.57624 | 34857 ft | 433 kts | 67° |
| 2026-05-05 17:11 | 54.57850 | 30.67235 | 34855 ft | 437 kts | 68° |
| 2026-05-05 17:11 | 54.60234 | 30.76777 | 34830 ft | 433 kts | 67° |
| 2026-05-05 17:12 | 54.62582 | 30.86360 | 34823 ft | 435 kts | 67° |
| 2026-05-05 17:12 | 54.64921 | 30.96024 | 34809 ft | 436 kts | 68° |
| 2026-05-05 17:13 | 54.67242 | 31.05606 | 34825 ft | 438 kts | 68° |
| 2026-05-05 17:13 | 54.69219 | 31.15513 | 34806 ft | 436 kts | 75° |
| 2026-05-05 17:14 | 54.71069 | 31.25432 | 34830 ft | 436 kts | 73° |
| 2026-05-05 17:14 | 54.72752 | 31.35477 | 34845 ft | 437 kts | 75° |
| 2026-05-05 17:15 | 54.74390 | 31.45529 | 34858 ft | 436 kts | 73° |
| 2026-05-05 17:15 | 54.76099 | 31.55605 | 34857 ft | 437 kts | 73° |
| 2026-05-05 17:16 | 54.77836 | 31.65639 | 34866 ft | 435 kts | 73° |
| 2026-05-05 17:16 | 54.79506 | 31.75703 | 34859 ft | 434 kts | 76° |
| 2026-05-05 17:17 | 54.80819 | 31.85856 | 34859 ft | 434 kts | 77° |
| 2026-05-05 17:17 | 54.82520 | 31.95882 | 34863 ft | 434 kts | 69° |
| 2026-05-05 17:18 | 54.84605 | 32.05592 | 34862 ft | 433 kts | 66° |
| 2026-05-05 17:18 | 54.86570 | 32.15464 | 34895 ft | 437 kts | 70° |
| 2026-05-05 17:19 | 54.88305 | 32.25497 | 34872 ft | 433 kts | 72° |
| 2026-05-05 17:19 | 54.89902 | 32.35542 | 34852 ft | 432 kts | 72° |
| 2026-05-05 17:20 | 54.91693 | 32.45483 | 34848 ft | 435 kts | 71° |
| 2026-05-05 17:20 | 54.93397 | 32.55578 | 34862 ft | 435 kts | 73° |
| 2026-05-05 17:21 | 54.94953 | 32.65632 | 34859 ft | 433 kts | 74° |
| 2026-05-05 17:22 | 54.97319 | 32.80759 | 34869 ft | 434 kts | 73° |
| 2026-05-05 17:22 | 54.98934 | 32.90829 | 34854 ft | 434 kts | 72° |
| 2026-05-05 17:23 | 55.00558 | 33.00897 | 34854 ft | 435 kts | 72° |
| 2026-05-05 17:23 | 55.02246 | 33.11000 | 34871 ft | 434 kts | 71° |
| 2026-05-05 17:24 | 55.03907 | 33.21101 | 34869 ft | 434 kts | 73° |
| 2026-05-05 17:24 | 55.05481 | 33.31252 | 34873 ft | 436 kts | 73° |
| 2026-05-05 17:25 | 55.07043 | 33.41331 | 34872 ft | 434 kts | 73° |
| 2026-05-05 17:25 | 55.08620 | 33.51467 | 34863 ft | 437 kts | 73° |
| 2026-05-05 17:26 | 55.10209 | 33.61673 | 34863 ft | 435 kts | 73° |
| 2026-05-05 17:26 | 55.11777 | 33.71784 | 34863 ft | 435 kts | 74° |
| 2026-05-05 17:27 | 55.13352 | 33.81987 | 34859 ft | 437 kts | 74° |
| 2026-05-05 17:27 | 55.14913 | 33.92154 | 34867 ft | 436 kts | 74° |
| 2026-05-05 17:28 | 55.16440 | 34.02126 | 34853 ft | 437 kts | 74° |
| 2026-05-05 17:28 | 55.17967 | 34.12156 | 34854 ft | 437 kts | 74° |
| 2026-05-05 17:29 | 55.19503 | 34.22317 | 34855 ft | 438 kts | 74° |
| 2026-05-05 17:29 | 55.21025 | 34.32470 | 34842 ft | 436 kts | 74° |
| 2026-05-05 17:30 | 55.22537 | 34.42623 | 34852 ft | 438 kts | 74° |
| 2026-05-05 17:30 | 55.24032 | 34.52722 | 34855 ft | 438 kts | 74° |
| 2026-05-05 17:31 | 55.25476 | 34.62547 | 34862 ft | 438 kts | 74° |